Argenta, Illinois
Current Conditions -  °F | °C
As of 10:54 PM on Tuesday 21 Oct 2014 (Local Time) from KDEC Reporting Station
Clear Clear  
Wind Chill: 35°   Ceiling: Unl
Heat Index: 40°   Visibility: 10mi
Dew Point: 38°   Wind: 7mph
Humidity: 93%   Direction: 50°NE
Pressure: 30.24"   Gusts: NA
Location:  39.98°N, 88.82°W
Report Text: KDEC 220354Z AUTO 05006KT 10SM CLR 04/03 A3024 RMK AO2 SLP243 T00440033 TSNO
Loading
Personal Weather Stations






























Interactive Weather Map
Tropical Storm Tracking
New forecast layout! Learn more

10-Day Weather Forecast

Advertisements
Track Severe Weather on mobile